sensor_id;sensor_type;location;lat;lon;timestamp;P1;durP1;ratioP1;P2;durP2;ratioP2
9106;SDS011;4589;48.690;8.952;2023-02-26T00:00:12;11.73;;;6.23;;
9106;SDS011;4589;48.690;8.952;2023-02-26T00:02:42;5.28;;;3.95;;
9106;SDS011;4589;48.690;8.952;2023-02-26T00:05:13;5.68;;;4.85;;
9106;SDS011;4589;48.690;8.952;2023-02-26T00:07:40;5.55;;;4.50;;
9106;SDS011;4589;48.690;8.952;2023-02-26T00:10:06;9.80;;;5.25;;
9106;SDS011;4589;48.690;8.952;2023-02-26T00:12:34;5.45;;;3.90;;
9106;SDS011;4589;48.690;8.952;2023-02-26T00:15:00;10.00;;;4.93;;
9106;SDS011;4589;48.690;8.952;2023-02-26T00:17:31;6.78;;;4.43;;
9106;SDS011;4589;48.690;8.952;2023-02-26T00:20:01;5.60;;;3.70;;
9106;SDS011;4589;48.690;8.952;2023-02-26T00:22:28;4.40;;;3.45;;
9106;SDS011;4589;48.690;8.952;2023-02-26T00:24:55;4.22;;;3.55;;
9106;SDS011;4589;48.690;8.952;2023-02-26T00:27:21;3.80;;;3.20;;
9106;SDS011;4589;48.690;8.952;2023-02-26T00:29:48;8.15;;;3.50;;
9106;SDS011;4589;48.690;8.952;2023-02-26T00:32:14;7.78;;;3.90;;
9106;SDS011;4589;48.690;8.952;2023-02-26T00:34:41;5.90;;;4.40;;
9106;SDS011;4589;48.690;8.952;2023-02-26T00:37:26;4.53;;;3.40;;
9106;SDS011;4589;48.690;8.952;2023-02-26T00:40:12;4.45;;;3.88;;
9106;SDS011;4589;48.690;8.952;2023-02-26T00:42:39;5.30;;;3.63;;
9106;SDS011;4589;48.690;8.952;2023-02-26T00:45:05;7.20;;;3.77;;
9106;SDS011;4589;48.690;8.952;2023-02-26T00:47:36;4.45;;;3.33;;
9106;SDS011;4589;48.690;8.952;2023-02-26T00:50:12;6.35;;;3.50;;
9106;SDS011;4589;48.690;8.952;2023-02-26T00:52:45;4.05;;;3.45;;
9106;SDS011;4589;48.690;8.952;2023-02-26T00:55:12;5.30;;;3.40;;
9106;SDS011;4589;48.690;8.952;2023-02-26T00:57:38;6.93;;;4.40;;
9106;SDS011;4589;48.690;8.952;2023-02-26T01:00:05;4.57;;;2.50;;
9106;SDS011;4589;48.690;8.952;2023-02-26T01:02:33;7.13;;;4.15;;
9106;SDS011;4589;48.690;8.952;2023-02-26T01:04:59;6.50;;;3.65;;
9106;SDS011;4589;48.690;8.952;2023-02-26T01:07:25;8.07;;;2.97;;
9106;SDS011;4589;48.690;8.952;2023-02-26T01:09:51;4.95;;;3.20;;
9106;SDS011;4589;48.690;8.952;2023-02-26T01:12:17;3.42;;;3.13;;
9106;SDS011;4589;48.690;8.952;2023-02-26T01:14:44;8.95;;;3.47;;
9106;SDS011;4589;48.690;8.952;2023-02-26T01:22:38;4.00;;;3.38;;
9106;SDS011;4589;48.690;8.952;2023-02-26T01:25:12;4.13;;;3.70;;
9106;SDS011;4589;48.690;8.952;2023-02-26T01:27:39;4.93;;;3.55;;
9106;SDS011;4589;48.690;8.952;2023-02-26T01:30:06;10.02;;;3.85;;
9106;SDS011;4589;48.690;8.952;2023-02-26T01:32:56;6.50;;;4.00;;
9106;SDS011;4589;48.690;8.952;2023-02-26T01:43:09;4.30;;;3.20;;
9106;SDS011;4589;48.690;8.952;2023-02-26T01:45:53;4.05;;;3.35;;
9106;SDS011;4589;48.690;8.952;2023-02-26T01:51:01;8.52;;;3.60;;
9106;SDS011;4589;48.690;8.952;2023-02-26T01:53:27;5.93;;;3.60;;
9106;SDS011;4589;48.690;8.952;2023-02-26T01:55:57;10.20;;;3.88;;
9106;SDS011;4589;48.690;8.952;2023-02-26T01:58:27;9.90;;;4.00;;
9106;SDS011;4589;48.690;8.952;2023-02-26T02:00:55;7.10;;;3.80;;
9106;SDS011;4589;48.690;8.952;2023-02-26T02:03:21;9.97;;;3.57;;
9106;SDS011;4589;48.690;8.952;2023-02-26T02:05:51;8.77;;;3.90;;
9106;SDS011;4589;48.690;8.952;2023-02-26T02:08:20;6.05;;;3.95;;
9106;SDS011;4589;48.690;8.952;2023-02-26T02:10:47;5.55;;;3.88;;
9106;SDS011;4589;48.690;8.952;2023-02-26T02:23:55;5.53;;;3.60;;
9106;SDS011;4589;48.690;8.952;2023-02-26T02:31:44;4.90;;;3.72;;
9106;SDS011;4589;48.690;8.952;2023-02-26T02:37:19;5.00;;;3.58;;
9106;SDS011;4589;48.690;8.952;2023-02-26T02:45:02;5.30;;;4.13;;
9106;SDS011;4589;48.690;8.952;2023-02-26T02:47:35;8.70;;;4.10;;
9106;SDS011;4589;48.690;8.952;2023-02-26T02:50:13;4.28;;;3.75;;
9106;SDS011;4589;48.690;8.952;2023-02-26T02:52:47;6.05;;;4.53;;
9106;SDS011;4589;48.690;8.952;2023-02-26T02:55:18;6.30;;;4.20;;
9106;SDS011;4589;48.690;8.952;2023-02-26T02:58:33;7.32;;;3.95;;
9106;SDS011;4589;48.690;8.952;2023-02-26T03:00:35;4.72;;;3.90;;
9106;SDS011;4589;48.690;8.952;2023-02-26T03:03:25;8.05;;;3.35;;
9106;SDS011;4589;48.690;8.952;2023-02-26T03:05:52;6.45;;;3.45;;
9106;SDS011;4589;48.690;8.952;2023-02-26T03:08:20;7.30;;;4.80;;
9106;SDS011;4589;48.690;8.952;2023-02-26T03:10:46;8.32;;;4.78;;
9106;SDS011;4589;48.690;8.952;2023-02-26T03:13:14;4.70;;;4.07;;
9106;SDS011;4589;48.690;8.952;2023-02-26T03:15:48;4.85;;;4.35;;
9106;SDS011;4589;48.690;8.952;2023-02-26T03:21:05;7.90;;;4.20;;
9106;SDS011;4589;48.690;8.952;2023-02-26T03:23:45;6.53;;;4.35;;
9106;SDS011;4589;48.690;8.952;2023-02-26T03:26:20;6.68;;;4.57;;
9106;SDS011;4589;48.690;8.952;2023-02-26T03:28:56;6.75;;;4.07;;
9106;SDS011;4589;48.690;8.952;2023-02-26T03:31:30;4.65;;;3.90;;
9106;SDS011;4589;48.690;8.952;2023-02-26T03:34:07;8.27;;;5.10;;
9106;SDS011;4589;48.690;8.952;2023-02-26T03:36:45;11.68;;;4.82;;
9106;SDS011;4589;48.690;8.952;2023-02-26T03:39:59;9.07;;;4.00;;
9106;SDS011;4589;48.690;8.952;2023-02-26T03:42:08;7.25;;;4.45;;
9106;SDS011;4589;48.690;8.952;2023-02-26T03:44:38;8.15;;;4.72;;
9106;SDS011;4589;48.690;8.952;2023-02-26T03:47:05;9.27;;;5.05;;
9106;SDS011;4589;48.690;8.952;2023-02-26T03:49:37;4.72;;;3.03;;
9106;SDS011;4589;48.690;8.952;2023-02-26T03:52:19;4.80;;;4.07;;
9106;SDS011;4589;48.690;8.952;2023-02-26T03:54:56;9.85;;;4.30;;
9106;SDS011;4589;48.690;8.952;2023-02-26T03:57:49;8.00;;;4.22;;
9106;SDS011;4589;48.690;8.952;2023-02-26T04:00:16;5.85;;;4.13;;
9106;SDS011;4589;48.690;8.952;2023-02-26T04:02:44;9.27;;;4.50;;
9106;SDS011;4589;48.690;8.952;2023-02-26T04:05:18;14.52;;;4.38;;
9106;SDS011;4589;48.690;8.952;2023-02-26T04:07:46;7.82;;;4.00;;
9106;SDS011;4589;48.690;8.952;2023-02-26T04:10:13;8.55;;;4.25;;
9106;SDS011;4589;48.690;8.952;2023-02-26T04:12:40;12.63;;;4.75;;
9106;SDS011;4589;48.690;8.952;2023-02-26T04:15:07;10.18;;;4.18;;
9106;SDS011;4589;48.690;8.952;2023-02-26T04:17:33;7.80;;;5.57;;
9106;SDS011;4589;48.690;8.952;2023-02-26T04:19:58;8.07;;;4.80;;
9106;SDS011;4589;48.690;8.952;2023-02-26T04:22:24;7.00;;;4.77;;
9106;SDS011;4589;48.690;8.952;2023-02-26T04:24:50;12.45;;;4.72;;
9106;SDS011;4589;48.690;8.952;2023-02-26T04:27:16;14.63;;;5.27;;
9106;SDS011;4589;48.690;8.952;2023-02-26T04:29:42;8.67;;;4.53;;
9106;SDS011;4589;48.690;8.952;2023-02-26T04:32:08;10.37;;;5.33;;
9106;SDS011;4589;48.690;8.952;2023-02-26T04:34:34;6.50;;;4.00;;
9106;SDS011;4589;48.690;8.952;2023-02-26T04:36:59;8.27;;;4.57;;
9106;SDS011;4589;48.690;8.952;2023-02-26T04:39:25;10.70;;;5.60;;
9106;SDS011;4589;48.690;8.952;2023-02-26T04:41:51;7.93;;;4.90;;
9106;SDS011;4589;48.690;8.952;2023-02-26T04:44:17;12.73;;;5.10;;
9106;SDS011;4589;48.690;8.952;2023-02-26T04:46:43;11.60;;;5.00;;
9106;SDS011;4589;48.690;8.952;2023-02-26T04:49:08;10.47;;;5.07;;
9106;SDS011;4589;48.690;8.952;2023-02-26T04:51:34;9.87;;;5.73;;
9106;SDS011;4589;48.690;8.952;2023-02-26T04:54:00;9.57;;;5.60;;
9106;SDS011;4589;48.690;8.952;2023-02-26T04:56:26;8.43;;;5.20;;
9106;SDS011;4589;48.690;8.952;2023-02-26T04:58:52;9.70;;;4.82;;
9106;SDS011;4589;48.690;8.952;2023-02-26T05:01:18;9.50;;;5.10;;
9106;SDS011;4589;48.690;8.952;2023-02-26T05:03:44;9.13;;;4.73;;
9106;SDS011;4589;48.690;8.952;2023-02-26T05:06:10;8.60;;;4.90;;
9106;SDS011;4589;48.690;8.952;2023-02-26T05:08:35;6.10;;;4.93;;
9106;SDS011;4589;48.690;8.952;2023-02-26T05:11:06;7.35;;;4.65;;
9106;SDS011;4589;48.690;8.952;2023-02-26T05:13:31;6.47;;;4.70;;
9106;SDS011;4589;48.690;8.952;2023-02-26T05:15:57;8.17;;;5.17;;
9106;SDS011;4589;48.690;8.952;2023-02-26T05:18:23;12.67;;;5.50;;
9106;SDS011;4589;48.690;8.952;2023-02-26T05:20:53;7.37;;;4.83;;
9106;SDS011;4589;48.690;8.952;2023-02-26T05:23:19;9.35;;;5.07;;
9106;SDS011;4589;48.690;8.952;2023-02-26T05:25:45;5.93;;;4.45;;
9106;SDS011;4589;48.690;8.952;2023-02-26T05:28:11;9.65;;;5.32;;
9106;SDS011;4589;48.690;8.952;2023-02-26T05:30:38;11.00;;;5.38;;
9106;SDS011;4589;48.690;8.952;2023-02-26T05:33:04;9.15;;;4.40;;
9106;SDS011;4589;48.690;8.952;2023-02-26T05:35:30;12.02;;;5.65;;
9106;SDS011;4589;48.690;8.952;2023-02-26T05:37:56;15.93;;;4.70;;
9106;SDS011;4589;48.690;8.952;2023-02-26T05:40:22;6.93;;;5.03;;
9106;SDS011;4589;48.690;8.952;2023-02-26T05:42:48;11.48;;;5.65;;
9106;SDS011;4589;48.690;8.952;2023-02-26T05:45:14;9.60;;;5.13;;
9106;SDS011;4589;48.690;8.952;2023-02-26T05:47:40;8.70;;;4.40;;
9106;SDS011;4589;48.690;8.952;2023-02-26T05:50:06;8.07;;;5.22;;
9106;SDS011;4589;48.690;8.952;2023-02-26T05:52:32;6.60;;;5.13;;
9106;SDS011;4589;48.690;8.952;2023-02-26T05:54:58;7.35;;;4.65;;
9106;SDS011;4589;48.690;8.952;2023-02-26T05:57:23;8.07;;;4.90;;
9106;SDS011;4589;48.690;8.952;2023-02-26T05:59:49;7.77;;;5.57;;
9106;SDS011;4589;48.690;8.952;2023-02-26T06:02:15;8.13;;;4.95;;
9106;SDS011;4589;48.690;8.952;2023-02-26T06:04:41;10.00;;;5.20;;
9106;SDS011;4589;48.690;8.952;2023-02-26T06:07:07;12.73;;;5.38;;
9106;SDS011;4589;48.690;8.952;2023-02-26T06:09:33;6.57;;;4.97;;
9106;SDS011;4589;48.690;8.952;2023-02-26T06:11:59;10.33;;;5.80;;
9106;SDS011;4589;48.690;8.952;2023-02-26T06:14:25;9.97;;;5.20;;
9106;SDS011;4589;48.690;8.952;2023-02-26T06:16:51;9.43;;;5.47;;
9106;SDS011;4589;48.690;8.952;2023-02-26T06:19:17;10.57;;;5.27;;
9106;SDS011;4589;48.690;8.952;2023-02-26T06:21:42;7.50;;;4.97;;
9106;SDS011;4589;48.690;8.952;2023-02-26T06:24:08;7.13;;;5.07;;
9106;SDS011;4589;48.690;8.952;2023-02-26T06:26:34;8.37;;;5.03;;
9106;SDS011;4589;48.690;8.952;2023-02-26T06:29:00;9.87;;;5.50;;
9106;SDS011;4589;48.690;8.952;2023-02-26T06:31:26;10.03;;;4.87;;
9106;SDS011;4589;48.690;8.952;2023-02-26T06:33:52;7.60;;;4.45;;
9106;SDS011;4589;48.690;8.952;2023-02-26T06:36:18;11.20;;;6.03;;
9106;SDS011;4589;48.690;8.952;2023-02-26T06:38:44;12.97;;;5.00;;
9106;SDS011;4589;48.690;8.952;2023-02-26T06:41:10;12.45;;;5.55;;
9106;SDS011;4589;48.690;8.952;2023-02-26T06:43:36;10.63;;;5.77;;
9106;SDS011;4589;48.690;8.952;2023-02-26T06:46:02;12.32;;;5.18;;
9106;SDS011;4589;48.690;8.952;2023-02-26T06:48:28;9.68;;;5.32;;
9106;SDS011;4589;48.690;8.952;2023-02-26T06:50:54;15.27;;;5.90;;
9106;SDS011;4589;48.690;8.952;2023-02-26T06:53:20;10.48;;;4.93;;
9106;SDS011;4589;48.690;8.952;2023-02-26T06:55:48;6.93;;;4.80;;
9106;SDS011;4589;48.690;8.952;2023-02-26T06:58:14;9.27;;;6.40;;
9106;SDS011;4589;48.690;8.952;2023-02-26T07:00:40;12.98;;;5.50;;
9106;SDS011;4589;48.690;8.952;2023-02-26T07:03:09;9.00;;;4.88;;
9106;SDS011;4589;48.690;8.952;2023-02-26T07:05:36;7.78;;;5.60;;
9106;SDS011;4589;48.690;8.952;2023-02-26T07:08:01;9.60;;;5.23;;
9106;SDS011;4589;48.690;8.952;2023-02-26T07:10:29;10.27;;;6.07;;
9106;SDS011;4589;48.690;8.952;2023-02-26T07:12:56;6.68;;;4.70;;
9106;SDS011;4589;48.690;8.952;2023-02-26T07:15:22;8.30;;;5.27;;
9106;SDS011;4589;48.690;8.952;2023-02-26T07:17:48;7.60;;;5.20;;
9106;SDS011;4589;48.690;8.952;2023-02-26T07:20:14;6.77;;;4.53;;
9106;SDS011;4589;48.690;8.952;2023-02-26T07:22:42;8.90;;;4.28;;
9106;SDS011;4589;48.690;8.952;2023-02-26T07:25:08;8.93;;;4.72;;
9106;SDS011;4589;48.690;8.952;2023-02-26T07:27:34;8.68;;;4.70;;
9106;SDS011;4589;48.690;8.952;2023-02-26T07:30:00;11.55;;;4.68;;
9106;SDS011;4589;48.690;8.952;2023-02-26T07:32:26;6.85;;;4.15;;
9106;SDS011;4589;48.690;8.952;2023-02-26T07:34:52;9.93;;;4.73;;
9106;SDS011;4589;48.690;8.952;2023-02-26T07:37:18;10.30;;;4.70;;
9106;SDS011;4589;48.690;8.952;2023-02-26T07:39:44;10.83;;;4.53;;
9106;SDS011;4589;48.690;8.952;2023-02-26T07:42:09;5.93;;;4.17;;
9106;SDS011;4589;48.690;8.952;2023-02-26T07:44:35;7.45;;;4.18;;
9106;SDS011;4589;48.690;8.952;2023-02-26T07:47:01;11.93;;;4.33;;
9106;SDS011;4589;48.690;8.952;2023-02-26T07:49:28;5.03;;;4.50;;
9106;SDS011;4589;48.690;8.952;2023-02-26T07:51:54;7.45;;;4.78;;
9106;SDS011;4589;48.690;8.952;2023-02-26T07:54:19;8.70;;;3.43;;
9106;SDS011;4589;48.690;8.952;2023-02-26T07:56:45;9.57;;;4.60;;
9106;SDS011;4589;48.690;8.952;2023-02-26T07:59:11;6.20;;;4.10;;
9106;SDS011;4589;48.690;8.952;2023-02-26T08:01:37;12.13;;;6.37;;
9106;SDS011;4589;48.690;8.952;2023-02-26T08:04:03;16.00;;;4.43;;
9106;SDS011;4589;48.690;8.952;2023-02-26T08:06:29;6.00;;;3.78;;
9106;SDS011;4589;48.690;8.952;2023-02-26T08:08:55;9.57;;;4.00;;
9106;SDS011;4589;48.690;8.952;2023-02-26T08:11:21;6.30;;;4.10;;
9106;SDS011;4589;48.690;8.952;2023-02-26T08:13:47;8.53;;;4.20;;
9106;SDS011;4589;48.690;8.952;2023-02-26T08:16:12;5.03;;;4.43;;
9106;SDS011;4589;48.690;8.952;2023-02-26T08:18:38;3.80;;;3.23;;
9106;SDS011;4589;48.690;8.952;2023-02-26T08:21:04;5.47;;;3.20;;
9106;SDS011;4589;48.690;8.952;2023-02-26T08:23:30;12.13;;;3.40;;
9106;SDS011;4589;48.690;8.952;2023-02-26T08:26:03;7.77;;;3.77;;
9106;SDS011;4589;48.690;8.952;2023-02-26T08:28:29;5.88;;;4.15;;
9106;SDS011;4589;48.690;8.952;2023-02-26T08:30:56;3.35;;;3.03;;
9106;SDS011;4589;48.690;8.952;2023-02-26T08:33:22;5.20;;;3.83;;
9106;SDS011;4589;48.690;8.952;2023-02-26T08:35:49;7.20;;;4.05;;
9106;SDS011;4589;48.690;8.952;2023-02-26T08:38:15;6.32;;;4.40;;
9106;SDS011;4589;48.690;8.952;2023-02-26T08:40:41;8.30;;;4.40;;
9106;SDS011;4589;48.690;8.952;2023-02-26T08:43:07;9.02;;;4.38;;
9106;SDS011;4589;48.690;8.952;2023-02-26T08:45:35;4.07;;;3.67;;
9106;SDS011;4589;48.690;8.952;2023-02-26T08:48:01;7.77;;;4.20;;
9106;SDS011;4589;48.690;8.952;2023-02-26T08:50:27;9.73;;;3.83;;
9106;SDS011;4589;48.690;8.952;2023-02-26T08:52:53;6.73;;;4.30;;
9106;SDS011;4589;48.690;8.952;2023-02-26T08:55:20;8.57;;;5.68;;
9106;SDS011;4589;48.690;8.952;2023-02-26T08:57:46;6.97;;;3.30;;
9106;SDS011;4589;48.690;8.952;2023-02-26T09:00:12;6.07;;;4.30;;
9106;SDS011;4589;48.690;8.952;2023-02-26T09:02:40;11.38;;;5.00;;
9106;SDS011;4589;48.690;8.952;2023-02-26T09:05:06;6.22;;;3.95;;
9106;SDS011;4589;48.690;8.952;2023-02-26T09:07:32;5.28;;;3.63;;
9106;SDS011;4589;48.690;8.952;2023-02-26T09:09:58;3.87;;;3.03;;
9106;SDS011;4589;48.690;8.952;2023-02-26T09:12:24;4.77;;;3.77;;
9106;SDS011;4589;48.690;8.952;2023-02-26T09:14:50;6.97;;;4.70;;
9106;SDS011;4589;48.690;8.952;2023-02-26T09:17:16;7.43;;;4.00;;
9106;SDS011;4589;48.690;8.952;2023-02-26T09:19:42;5.73;;;4.10;;
9106;SDS011;4589;48.690;8.952;2023-02-26T09:22:08;4.90;;;3.27;;
9106;SDS011;4589;48.690;8.952;2023-02-26T09:24:34;10.25;;;6.35;;
9106;SDS011;4589;48.690;8.952;2023-02-26T09:27:00;8.40;;;4.60;;
9106;SDS011;4589;48.690;8.952;2023-02-26T09:29:27;8.70;;;4.03;;
9106;SDS011;4589;48.690;8.952;2023-02-26T09:31:53;9.70;;;4.45;;
9106;SDS011;4589;48.690;8.952;2023-02-26T09:34:19;6.30;;;4.10;;
9106;SDS011;4589;48.690;8.952;2023-02-26T09:36:45;6.80;;;4.00;;
9106;SDS011;4589;48.690;8.952;2023-02-26T09:39:11;8.87;;;5.40;;
9106;SDS011;4589;48.690;8.952;2023-02-26T09:41:44;7.18;;;4.43;;
9106;SDS011;4589;48.690;8.952;2023-02-26T09:51:45;3.10;;;2.80;;
9106;SDS011;4589;48.690;8.952;2023-02-26T09:54:19;2.90;;;2.67;;
9106;SDS011;4589;48.690;8.952;2023-02-26T09:56:49;5.63;;;3.25;;
9106;SDS011;4589;48.690;8.952;2023-02-26T09:59:16;5.55;;;4.40;;
9106;SDS011;4589;48.690;8.952;2023-02-26T10:01:55;9.83;;;3.90;;
9106;SDS011;4589;48.690;8.952;2023-02-26T10:12:13;6.88;;;3.88;;
9106;SDS011;4589;48.690;8.952;2023-02-26T10:14:49;7.00;;;4.00;;
9106;SDS011;4589;48.690;8.952;2023-02-26T10:19:58;8.05;;;3.83;;
9106;SDS011;4589;48.690;8.952;2023-02-26T10:22:36;7.93;;;3.33;;
9106;SDS011;4589;48.690;8.952;2023-02-26T10:25:11;7.97;;;4.30;;
9106;SDS011;4589;48.690;8.952;2023-02-26T10:27:52;7.30;;;3.58;;
9106;SDS011;4589;48.690;8.952;2023-02-26T10:30:24;5.03;;;3.58;;
9106;SDS011;4589;48.690;8.952;2023-02-26T10:35:52;4.82;;;3.80;;
9106;SDS011;4589;48.690;8.952;2023-02-26T10:38:21;4.32;;;3.92;;
9106;SDS011;4589;48.690;8.952;2023-02-26T10:40:51;8.00;;;4.97;;
9106;SDS011;4589;48.690;8.952;2023-02-26T10:46:06;4.03;;;3.53;;
9106;SDS011;4589;48.690;8.952;2023-02-26T10:51:38;5.65;;;3.70;;
9106;SDS011;4589;48.690;8.952;2023-02-26T10:56:52;5.95;;;3.53;;
9106;SDS011;4589;48.690;8.952;2023-02-26T10:59:18;4.10;;;3.55;;
9106;SDS011;4589;48.690;8.952;2023-02-26T11:01:43;4.13;;;3.73;;
9106;SDS011;4589;48.690;8.952;2023-02-26T11:04:14;4.43;;;3.95;;
9106;SDS011;4589;48.690;8.952;2023-02-26T11:06:47;7.18;;;3.60;;
9106;SDS011;4589;48.690;8.952;2023-02-26T11:09:19;5.05;;;4.43;;
9106;SDS011;4589;48.690;8.952;2023-02-26T11:14:19;5.38;;;3.58;;
9106;SDS011;4589;48.690;8.952;2023-02-26T11:16:48;8.43;;;3.70;;
9106;SDS011;4589;48.690;8.952;2023-02-26T11:19:15;4.03;;;3.38;;
9106;SDS011;4589;48.690;8.952;2023-02-26T11:21:43;5.40;;;3.55;;
9106;SDS011;4589;48.690;8.952;2023-02-26T11:24:11;4.38;;;3.97;;
9106;SDS011;4589;48.690;8.952;2023-02-26T11:26:38;3.20;;;2.88;;
9106;SDS011;4589;48.690;8.952;2023-02-26T11:29:11;4.90;;;3.60;;
9106;SDS011;4589;48.690;8.952;2023-02-26T11:31:52;3.85;;;3.42;;
9106;SDS011;4589;48.690;8.952;2023-02-26T11:34:22;5.25;;;3.35;;
9106;SDS011;4589;48.690;8.952;2023-02-26T11:36:50;4.00;;;2.47;;
9106;SDS011;4589;48.690;8.952;2023-02-26T11:39:22;3.33;;;2.83;;
9106;SDS011;4589;48.690;8.952;2023-02-26T11:41:51;3.75;;;3.38;;
9106;SDS011;4589;48.690;8.952;2023-02-26T11:44:25;3.67;;;2.40;;
9106;SDS011;4589;48.690;8.952;2023-02-26T11:46:56;3.28;;;2.83;;
9106;SDS011;4589;48.690;8.952;2023-02-26T11:49:23;2.50;;;2.30;;
9106;SDS011;4589;48.690;8.952;2023-02-26T11:54:39;2.25;;;2.05;;
9106;SDS011;4589;48.690;8.952;2023-02-26T11:57:06;3.07;;;2.63;;
9106;SDS011;4589;48.690;8.952;2023-02-26T11:59:39;3.67;;;2.72;;
9106;SDS011;4589;48.690;8.952;2023-02-26T12:02:11;3.20;;;2.90;;
9106;SDS011;4589;48.690;8.952;2023-02-26T12:04:38;3.35;;;2.20;;
9106;SDS011;4589;48.690;8.952;2023-02-26T12:07:07;4.05;;;2.42;;
9106;SDS011;4589;48.690;8.952;2023-02-26T12:09:37;2.47;;;2.10;;
9106;SDS011;4589;48.690;8.952;2023-02-26T12:20:32;2.65;;;1.90;;
9106;SDS011;4589;48.690;8.952;2023-02-26T12:33:35;3.67;;;2.27;;
9106;SDS011;4589;48.690;8.952;2023-02-26T12:38:57;3.38;;;1.88;;
9106;SDS011;4589;48.690;8.952;2023-02-26T12:47:38;2.85;;;1.98;;
9106;SDS011;4589;48.690;8.952;2023-02-26T12:55:43;3.20;;;1.80;;
9106;SDS011;4589;48.690;8.952;2023-02-26T13:03:56;3.22;;;1.90;;
9106;SDS011;4589;48.690;8.952;2023-02-26T13:20:14;1.88;;;1.70;;
9106;SDS011;4589;48.690;8.952;2023-02-26T13:22:43;2.45;;;1.92;;
9106;SDS011;4589;48.690;8.952;2023-02-26T13:27:47;1.80;;;1.70;;
9106;SDS011;4589;48.690;8.952;2023-02-26T13:32:52;2.70;;;2.50;;
9106;SDS011;4589;48.690;8.952;2023-02-26T13:37:46;2.20;;;1.73;;
9106;SDS011;4589;48.690;8.952;2023-02-26T13:43:03;2.50;;;1.98;;
9106;SDS011;4589;48.690;8.952;2023-02-26T13:49:03;2.65;;;1.85;;
9106;SDS011;4589;48.690;8.952;2023-02-26T13:52:00;3.58;;;2.22;;
9106;SDS011;4589;48.690;8.952;2023-02-26T14:04:57;1.83;;;1.70;;
9106;SDS011;4589;48.690;8.952;2023-02-26T14:10:15;2.45;;;1.45;;
9106;SDS011;4589;48.690;8.952;2023-02-26T14:12:42;2.70;;;1.77;;
9106;SDS011;4589;48.690;8.952;2023-02-26T14:18:19;1.73;;;1.50;;
9106;SDS011;4589;48.690;8.952;2023-02-26T14:20:27;2.05;;;1.50;;
9106;SDS011;4589;48.690;8.952;2023-02-26T14:25:37;1.50;;;1.40;;
9106;SDS011;4589;48.690;8.952;2023-02-26T14:30:46;2.50;;;1.53;;
9106;SDS011;4589;48.690;8.952;2023-02-26T14:33:15;2.40;;;2.20;;
9106;SDS011;4589;48.690;8.952;2023-02-26T14:35:42;2.42;;;1.95;;
9106;SDS011;4589;48.690;8.952;2023-02-26T14:38:23;2.53;;;2.13;;
9106;SDS011;4589;48.690;8.952;2023-02-26T14:43:37;2.47;;;2.10;;
9106;SDS011;4589;48.690;8.952;2023-02-26T14:46:08;1.85;;;1.52;;
9106;SDS011;4589;48.690;8.952;2023-02-26T14:48:35;1.80;;;1.60;;
9106;SDS011;4589;48.690;8.952;2023-02-26T14:53:38;2.50;;;1.77;;
9106;SDS011;4589;48.690;8.952;2023-02-26T14:56:15;1.48;;;1.38;;
9106;SDS011;4589;48.690;8.952;2023-02-26T14:58:44;2.00;;;1.65;;
9106;SDS011;4589;48.690;8.952;2023-02-26T15:18:15;1.35;;;1.20;;
9106;SDS011;4589;48.690;8.952;2023-02-26T15:21:02;1.52;;;1.30;;
9106;SDS011;4589;48.690;8.952;2023-02-26T15:23:46;7.25;;;1.80;;
9106;SDS011;4589;48.690;8.952;2023-02-26T15:26:18;1.95;;;1.30;;
9106;SDS011;4589;48.690;8.952;2023-02-26T15:28:45;1.85;;;1.70;;
9106;SDS011;4589;48.690;8.952;2023-02-26T15:31:11;1.80;;;1.70;;
9106;SDS011;4589;48.690;8.952;2023-02-26T15:33:37;2.75;;;1.45;;
9106;SDS011;4589;48.690;8.952;2023-02-26T15:36:08;2.60;;;1.67;;
9106;SDS011;4589;48.690;8.952;2023-02-26T15:38:41;2.35;;;2.15;;
9106;SDS011;4589;48.690;8.952;2023-02-26T15:41:09;2.50;;;1.50;;
9106;SDS011;4589;48.690;8.952;2023-02-26T15:43:36;1.40;;;1.30;;
9106;SDS011;4589;48.690;8.952;2023-02-26T15:46:02;1.45;;;1.35;;
9106;SDS011;4589;48.690;8.952;2023-02-26T15:48:29;2.67;;;1.80;;
9106;SDS011;4589;48.690;8.952;2023-02-26T15:50:57;2.08;;;1.60;;
9106;SDS011;4589;48.690;8.952;2023-02-26T15:55:56;1.70;;;1.45;;
9106;SDS011;4589;48.690;8.952;2023-02-26T16:00:59;2.60;;;1.40;;
9106;SDS011;4589;48.690;8.952;2023-02-26T16:03:35;2.58;;;1.70;;
9106;SDS011;4589;48.690;8.952;2023-02-26T16:06:02;2.10;;;1.52;;
9106;SDS011;4589;48.690;8.952;2023-02-26T16:08:28;1.75;;;1.40;;
9106;SDS011;4589;48.690;8.952;2023-02-26T16:10:55;5.22;;;2.00;;
9106;SDS011;4589;48.690;8.952;2023-02-26T16:13:34;2.05;;;1.70;;
9106;SDS011;4589;48.690;8.952;2023-02-26T16:16:03;2.05;;;1.77;;
9106;SDS011;4589;48.690;8.952;2023-02-26T16:18:32;2.40;;;2.20;;
9106;SDS011;4589;48.690;8.952;2023-02-26T16:20:59;2.08;;;1.60;;
9106;SDS011;4589;48.690;8.952;2023-02-26T16:23:44;4.15;;;2.30;;
9106;SDS011;4589;48.690;8.952;2023-02-26T16:26:14;4.07;;;1.75;;
9106;SDS011;4589;48.690;8.952;2023-02-26T16:28:42;3.63;;;2.35;;
9106;SDS011;4589;48.690;8.952;2023-02-26T16:31:15;2.15;;;1.95;;
9106;SDS011;4589;48.690;8.952;2023-02-26T16:33:52;1.60;;;1.40;;
9106;SDS011;4589;48.690;8.952;2023-02-26T16:36:19;1.35;;;1.20;;
9106;SDS011;4589;48.690;8.952;2023-02-26T16:38:49;1.83;;;1.30;;
9106;SDS011;4589;48.690;8.952;2023-02-26T16:41:28;2.92;;;1.60;;
9106;SDS011;4589;48.690;8.952;2023-02-26T16:43:55;1.23;;;1.13;;
9106;SDS011;4589;48.690;8.952;2023-02-26T16:46:30;1.70;;;1.60;;
9106;SDS011;4589;48.690;8.952;2023-02-26T16:49:17;2.00;;;1.40;;
9106;SDS011;4589;48.690;8.952;2023-02-26T16:51:45;1.83;;;1.33;;
9106;SDS011;4589;48.690;8.952;2023-02-26T16:54:21;4.30;;;1.75;;
9106;SDS011;4589;48.690;8.952;2023-02-26T16:56:51;1.20;;;1.10;;
9106;SDS011;4589;48.690;8.952;2023-02-26T16:59:29;2.05;;;1.60;;
9106;SDS011;4589;48.690;8.952;2023-02-26T17:01:57;2.03;;;1.58;;
9106;SDS011;4589;48.690;8.952;2023-02-26T17:04:24;2.03;;;1.83;;
9106;SDS011;4589;48.690;8.952;2023-02-26T17:06:53;1.25;;;1.10;;
9106;SDS011;4589;48.690;8.952;2023-02-26T17:09:32;3.20;;;1.25;;
9106;SDS011;4589;48.690;8.952;2023-02-26T17:12:04;2.15;;;1.35;;
9106;SDS011;4589;48.690;8.952;2023-02-26T17:14:31;2.08;;;1.45;;
9106;SDS011;4589;48.690;8.952;2023-02-26T17:17:04;2.10;;;1.73;;
9106;SDS011;4589;48.690;8.952;2023-02-26T17:19:30;4.00;;;1.80;;
9106;SDS011;4589;48.690;8.952;2023-02-26T17:21:57;6.97;;;1.45;;
9106;SDS011;4589;48.690;8.952;2023-02-26T17:24:33;3.13;;;1.50;;
9106;SDS011;4589;48.690;8.952;2023-02-26T17:27:05;2.30;;;1.73;;
9106;SDS011;4589;48.690;8.952;2023-02-26T17:29:38;3.22;;;2.10;;
9106;SDS011;4589;48.690;8.952;2023-02-26T17:32:09;2.17;;;1.85;;
9106;SDS011;4589;48.690;8.952;2023-02-26T17:34:36;4.65;;;2.10;;
9106;SDS011;4589;48.690;8.952;2023-02-26T17:37:02;4.10;;;1.77;;
9106;SDS011;4589;48.690;8.952;2023-02-26T17:39:31;3.60;;;2.15;;
9106;SDS011;4589;48.690;8.952;2023-02-26T17:41:57;1.67;;;1.48;;
9106;SDS011;4589;48.690;8.952;2023-02-26T17:44:23;1.67;;;1.58;;
9106;SDS011;4589;48.690;8.952;2023-02-26T17:46:50;1.80;;;1.70;;
9106;SDS011;4589;48.690;8.952;2023-02-26T17:49:15;2.40;;;1.57;;
9106;SDS011;4589;48.690;8.952;2023-02-26T17:51:41;4.47;;;2.00;;
9106;SDS011;4589;48.690;8.952;2023-02-26T17:54:07;2.47;;;1.97;;
9106;SDS011;4589;48.690;8.952;2023-02-26T17:56:33;3.17;;;2.28;;
9106;SDS011;4589;48.690;8.952;2023-02-26T17:59:00;3.50;;;2.25;;
9106;SDS011;4589;48.690;8.952;2023-02-26T18:01:26;4.20;;;2.58;;
9106;SDS011;4589;48.690;8.952;2023-02-26T18:03:54;3.35;;;2.30;;
9106;SDS011;4589;48.690;8.952;2023-02-26T18:06:21;2.55;;;2.35;;
9106;SDS011;4589;48.690;8.952;2023-02-26T18:08:48;5.22;;;1.75;;
9106;SDS011;4589;48.690;8.952;2023-02-26T18:11:14;3.73;;;1.60;;
9106;SDS011;4589;48.690;8.952;2023-02-26T18:13:40;2.40;;;1.80;;
9106;SDS011;4589;48.690;8.952;2023-02-26T18:16:17;2.23;;;1.80;;
9106;SDS011;4589;48.690;8.952;2023-02-26T18:18:43;2.30;;;1.85;;
9106;SDS011;4589;48.690;8.952;2023-02-26T18:21:09;4.20;;;2.50;;
9106;SDS011;4589;48.690;8.952;2023-02-26T18:23:35;2.10;;;1.77;;
9106;SDS011;4589;48.690;8.952;2023-02-26T18:26:00;2.00;;;1.70;;
9106;SDS011;4589;48.690;8.952;2023-02-26T18:28:27;2.17;;;1.80;;
9106;SDS011;4589;48.690;8.952;2023-02-26T18:30:54;5.00;;;2.10;;
9106;SDS011;4589;48.690;8.952;2023-02-26T18:33:20;1.80;;;1.70;;
9106;SDS011;4589;48.690;8.952;2023-02-26T18:35:47;2.35;;;2.15;;
9106;SDS011;4589;48.690;8.952;2023-02-26T18:38:17;2.00;;;1.83;;